sensor_id;sensor_type;location;lat;lon;timestamp;temperature;humidity
26212;DHT22;13951;49.516;6.094;2022-08-03T00:01:05;20.40;99.90
26212;DHT22;13951;49.516;6.094;2022-08-03T00:03:38;20.30;99.90
26212;DHT22;13951;49.516;6.094;2022-08-03T00:06:12;20.30;99.90
26212;DHT22;13951;49.516;6.094;2022-08-03T00:08:45;20.30;99.90
26212;DHT22;13951;49.516;6.094;2022-08-03T00:11:18;20.10;99.90
26212;DHT22;13951;49.516;6.094;2022-08-03T00:13:51;20.10;99.90
26212;DHT22;13951;49.516;6.094;2022-08-03T00:16:25;20.20;99.90
26212;DHT22;13951;49.516;6.094;2022-08-03T00:18:58;20.20;99.90
26212;DHT22;13951;49.516;6.094;2022-08-03T00:21:32;20.20;99.90
26212;DHT22;13951;49.516;6.094;2022-08-03T00:24:05;20.20;99.90
26212;DHT22;13951;49.516;6.094;2022-08-03T00:26:38;20.10;99.90
26212;DHT22;13951;49.516;6.094;2022-08-03T00:29:12;20.10;99.90
26212;DHT22;13951;49.516;6.094;2022-08-03T00:31:45;20.00;99.90
26212;DHT22;13951;49.516;6.094;2022-08-03T00:34:24;19.90;99.90
26212;DHT22;13951;49.516;6.094;2022-08-03T00:37:08;19.90;99.90
26212;DHT22;13951;49.516;6.094;2022-08-03T00:39:41;19.90;99.90
26212;DHT22;13951;49.516;6.094;2022-08-03T00:42:17;19.90;99.90
26212;DHT22;13951;49.516;6.094;2022-08-03T00:44:50;19.80;99.90
26212;DHT22;13951;49.516;6.094;2022-08-03T00:47:24;19.90;99.90
26212;DHT22;13951;49.516;6.094;2022-08-03T00:49:57;19.80;99.90
26212;DHT22;13951;49.516;6.094;2022-08-03T00:52:30;19.80;99.90
26212;DHT22;13951;49.516;6.094;2022-08-03T00:55:03;19.80;99.90
26212;DHT22;13951;49.516;6.094;2022-08-03T00:57:37;19.80;99.90
26212;DHT22;13951;49.516;6.094;2022-08-03T01:00:12;19.80;99.90
26212;DHT22;13951;49.516;6.094;2022-08-03T01:02:46;19.80;99.90
26212;DHT22;13951;49.516;6.094;2022-08-03T01:05:22;19.70;99.90
26212;DHT22;13951;49.516;6.094;2022-08-03T01:10:40;19.80;99.90
26212;DHT22;13951;49.516;6.094;2022-08-03T01:13:39;19.80;99.90
26212;DHT22;13951;49.516;6.094;2022-08-03T01:16:43;19.70;99.90
26212;DHT22;13951;49.516;6.094;2022-08-03T01:31:10;19.60;99.90
26212;DHT22;13951;49.516;6.094;2022-08-03T01:33:50;19.60;99.90
26212;DHT22;13951;49.516;6.094;2022-08-03T01:36:42;19.50;99.90
26212;DHT22;13951;49.516;6.094;2022-08-03T01:39:17;19.40;99.90
26212;DHT22;13951;49.516;6.094;2022-08-03T01:41:55;19.30;99.90
26212;DHT22;13951;49.516;6.094;2022-08-03T01:44:35;19.30;99.90
26212;DHT22;13951;49.516;6.094;2022-08-03T01:47:09;19.20;99.90
26212;DHT22;13951;49.516;6.094;2022-08-03T01:49:44;19.20;99.90
26212;DHT22;13951;49.516;6.094;2022-08-03T01:52:19;19.20;99.90
26212;DHT22;13951;49.516;6.094;2022-08-03T01:54:54;19.20;99.90
26212;DHT22;13951;49.516;6.094;2022-08-03T01:57:28;19.30;99.90
26212;DHT22;13951;49.516;6.094;2022-08-03T02:00:03;19.30;99.90
26212;DHT22;13951;49.516;6.094;2022-08-03T02:02:43;19.20;99.90
26212;DHT22;13951;49.516;6.094;2022-08-03T02:05:19;19.30;99.90
26212;DHT22;13951;49.516;6.094;2022-08-03T02:07:53;19.20;99.90
26212;DHT22;13951;49.516;6.094;2022-08-03T02:10:27;19.10;99.90
26212;DHT22;13951;49.516;6.094;2022-08-03T02:13:08;19.00;99.90
26212;DHT22;13951;49.516;6.094;2022-08-03T02:15:42;19.00;99.90
26212;DHT22;13951;49.516;6.094;2022-08-03T02:18:17;19.00;99.90
26212;DHT22;13951;49.516;6.094;2022-08-03T02:20:51;19.00;99.90
26212;DHT22;13951;49.516;6.094;2022-08-03T02:23:24;19.00;99.90
26212;DHT22;13951;49.516;6.094;2022-08-03T02:26:01;19.00;99.90
26212;DHT22;13951;49.516;6.094;2022-08-03T02:28:37;19.00;99.90
26212;DHT22;13951;49.516;6.094;2022-08-03T02:31:14;19.00;99.90
26212;DHT22;13951;49.516;6.094;2022-08-03T02:33:55;19.00;99.90
26212;DHT22;13951;49.516;6.094;2022-08-03T02:36:30;18.90;99.90
26212;DHT22;13951;49.516;6.094;2022-08-03T02:39:09;18.90;99.90
26212;DHT22;13951;49.516;6.094;2022-08-03T02:41:46;18.90;99.90
26212;DHT22;13951;49.516;6.094;2022-08-03T02:44:24;18.80;99.90
26212;DHT22;13951;49.516;6.094;2022-08-03T02:47:02;18.80;99.90
26212;DHT22;13951;49.516;6.094;2022-08-03T02:49:36;18.70;99.90
26212;DHT22;13951;49.516;6.094;2022-08-03T02:52:27;18.70;99.90
26212;DHT22;13951;49.516;6.094;2022-08-03T02:55:01;18.70;99.90
26212;DHT22;13951;49.516;6.094;2022-08-03T02:57:36;18.70;99.90
26212;DHT22;13951;49.516;6.094;2022-08-03T03:00:10;18.70;99.90
26212;DHT22;13951;49.516;6.094;2022-08-03T03:02:45;18.70;99.90
26212;DHT22;13951;49.516;6.094;2022-08-03T03:05:18;18.60;99.90
26212;DHT22;13951;49.516;6.094;2022-08-03T03:08:19;18.60;99.90
26212;DHT22;13951;49.516;6.094;2022-08-03T03:11:00;18.60;99.90
26212;DHT22;13951;49.516;6.094;2022-08-03T03:13:34;18.50;99.90
26212;DHT22;13951;49.516;6.094;2022-08-03T03:16:09;18.50;99.90
26212;DHT22;13951;49.516;6.094;2022-08-03T03:18:45;18.40;99.90
26212;DHT22;13951;49.516;6.094;2022-08-03T03:21:21;18.40;99.90
26212;DHT22;13951;49.516;6.094;2022-08-03T03:23:56;18.30;99.90
26212;DHT22;13951;49.516;6.094;2022-08-03T03:26:30;18.30;99.90
26212;DHT22;13951;49.516;6.094;2022-08-03T03:29:03;18.30;99.90
26212;DHT22;13951;49.516;6.094;2022-08-03T03:31:37;18.30;99.90
26212;DHT22;13951;49.516;6.094;2022-08-03T03:34:12;18.30;99.90
26212;DHT22;13951;49.516;6.094;2022-08-03T03:36:45;18.30;99.90
26212;DHT22;13951;49.516;6.094;2022-08-03T03:39:19;18.30;99.90
26212;DHT22;13951;49.516;6.094;2022-08-03T03:41:52;18.30;99.90
26212;DHT22;13951;49.516;6.094;2022-08-03T03:44:29;18.30;99.90
26212;DHT22;13951;49.516;6.094;2022-08-03T03:47:03;18.30;99.90
26212;DHT22;13951;49.516;6.094;2022-08-03T03:49:38;18.30;99.90
26212;DHT22;13951;49.516;6.094;2022-08-03T03:52:12;18.30;99.90
26212;DHT22;13951;49.516;6.094;2022-08-03T03:54:46;18.40;99.90
26212;DHT22;13951;49.516;6.094;2022-08-03T03:57:21;18.40;99.90
26212;DHT22;13951;49.516;6.094;2022-08-03T03:59:55;18.40;99.90
26212;DHT22;13951;49.516;6.094;2022-08-03T04:02:28;18.30;99.90
26212;DHT22;13951;49.516;6.094;2022-08-03T04:05:02;18.30;99.90
26212;DHT22;13951;49.516;6.094;2022-08-03T04:07:59;18.30;99.90
26212;DHT22;13951;49.516;6.094;2022-08-03T04:13:36;18.20;99.90
26212;DHT22;13951;49.516;6.094;2022-08-03T04:16:13;18.20;99.90
26212;DHT22;13951;49.516;6.094;2022-08-03T04:19:08;18.10;99.90
26212;DHT22;13951;49.516;6.094;2022-08-03T04:21:43;18.10;99.90
26212;DHT22;13951;49.516;6.094;2022-08-03T04:24:20;18.10;99.90
26212;DHT22;13951;49.516;6.094;2022-08-03T04:27:00;18.10;99.90
26212;DHT22;13951;49.516;6.094;2022-08-03T04:29:35;18.10;99.90
26212;DHT22;13951;49.516;6.094;2022-08-03T04:32:16;18.10;99.90
26212;DHT22;13951;49.516;6.094;2022-08-03T04:34:52;18.10;99.90
26212;DHT22;13951;49.516;6.094;2022-08-03T04:37:39;18.00;99.90
26212;DHT22;13951;49.516;6.094;2022-08-03T04:40:24;18.10;99.90
26212;DHT22;13951;49.516;6.094;2022-08-03T04:43:02;18.10;99.90
26212;DHT22;13951;49.516;6.094;2022-08-03T04:45:37;18.10;99.90
26212;DHT22;13951;49.516;6.094;2022-08-03T04:48:10;18.10;99.90
26212;DHT22;13951;49.516;6.094;2022-08-03T04:50:43;18.10;99.90
26212;DHT22;13951;49.516;6.094;2022-08-03T04:53:17;18.20;99.90
26212;DHT22;13951;49.516;6.094;2022-08-03T04:55:51;18.20;99.90
26212;DHT22;13951;49.516;6.094;2022-08-03T04:58:24;18.20;99.90
26212;DHT22;13951;49.516;6.094;2022-08-03T05:00:57;18.30;99.90
26212;DHT22;13951;49.516;6.094;2022-08-03T05:03:30;18.40;99.90
26212;DHT22;13951;49.516;6.094;2022-08-03T05:06:03;18.40;99.90
26212;DHT22;13951;49.516;6.094;2022-08-03T05:08:43;18.50;99.90
26212;DHT22;13951;49.516;6.094;2022-08-03T05:11:18;18.40;99.90
26212;DHT22;13951;49.516;6.094;2022-08-03T05:13:51;18.40;99.90
26212;DHT22;13951;49.516;6.094;2022-08-03T05:16:24;18.50;99.90
26212;DHT22;13951;49.516;6.094;2022-08-03T05:18:57;18.50;99.90
26212;DHT22;13951;49.516;6.094;2022-08-03T05:21:30;18.60;99.90
26212;DHT22;13951;49.516;6.094;2022-08-03T05:24:23;18.60;99.90
26212;DHT22;13951;49.516;6.094;2022-08-03T05:26:56;18.70;99.90
26212;DHT22;13951;49.516;6.094;2022-08-03T05:29:30;18.80;99.90
26212;DHT22;13951;49.516;6.094;2022-08-03T05:32:03;18.80;99.90
26212;DHT22;13951;49.516;6.094;2022-08-03T05:34:40;18.90;99.90
26212;DHT22;13951;49.516;6.094;2022-08-03T05:37:13;19.10;99.90
26212;DHT22;13951;49.516;6.094;2022-08-03T05:39:46;19.20;99.90
26212;DHT22;13951;49.516;6.094;2022-08-03T05:42:19;19.30;99.90
26212;DHT22;13951;49.516;6.094;2022-08-03T05:44:52;19.50;99.90
26212;DHT22;13951;49.516;6.094;2022-08-03T05:47:25;19.60;99.90
26212;DHT22;13951;49.516;6.094;2022-08-03T05:49:58;19.80;99.90
26212;DHT22;13951;49.516;6.094;2022-08-03T05:52:31;19.90;99.90
26212;DHT22;13951;49.516;6.094;2022-08-03T05:55:05;20.10;99.90
26212;DHT22;13951;49.516;6.094;2022-08-03T05:57:39;20.20;99.90
26212;DHT22;13951;49.516;6.094;2022-08-03T06:00:15;20.40;99.90
26212;DHT22;13951;49.516;6.094;2022-08-03T06:02:48;20.60;99.90
26212;DHT22;13951;49.516;6.094;2022-08-03T06:05:21;20.80;99.90
26212;DHT22;13951;49.516;6.094;2022-08-03T06:07:54;21.10;99.90
26212;DHT22;13951;49.516;6.094;2022-08-03T06:10:27;21.30;99.90
26212;DHT22;13951;49.516;6.094;2022-08-03T06:13:09;21.60;99.90
26212;DHT22;13951;49.516;6.094;2022-08-03T06:15:42;21.80;99.90
26212;DHT22;13951;49.516;6.094;2022-08-03T06:18:15;22.00;99.90
26212;DHT22;13951;49.516;6.094;2022-08-03T06:20:49;22.30;99.90
26212;DHT22;13951;49.516;6.094;2022-08-03T06:23:24;22.50;99.90
26212;DHT22;13951;49.516;6.094;2022-08-03T06:26:17;22.80;99.90
26212;DHT22;13951;49.516;6.094;2022-08-03T06:28:50;23.00;99.90
26212;DHT22;13951;49.516;6.094;2022-08-03T06:31:26;23.20;99.90
26212;DHT22;13951;49.516;6.094;2022-08-03T06:34:05;23.50;99.90
26212;DHT22;13951;49.516;6.094;2022-08-03T06:36:58;23.70;99.90
26212;DHT22;13951;49.516;6.094;2022-08-03T06:39:34;23.90;99.90
26212;DHT22;13951;49.516;6.094;2022-08-03T06:42:07;24.10;99.90
26212;DHT22;13951;49.516;6.094;2022-08-03T06:44:45;24.30;99.90
26212;DHT22;13951;49.516;6.094;2022-08-03T06:47:18;24.50;99.90
26212;DHT22;13951;49.516;6.094;2022-08-03T06:49:52;24.80;99.90
26212;DHT22;13951;49.516;6.094;2022-08-03T06:52:45;25.00;99.90
26212;DHT22;13951;49.516;6.094;2022-08-03T06:55:18;25.10;99.90
26212;DHT22;13951;49.516;6.094;2022-08-03T06:57:51;25.30;99.90
26212;DHT22;13951;49.516;6.094;2022-08-03T07:00:25;25.50;99.90
26212;DHT22;13951;49.516;6.094;2022-08-03T07:02:59;25.80;99.90
26212;DHT22;13951;49.516;6.094;2022-08-03T07:05:32;26.10;99.90
26212;DHT22;13951;49.516;6.094;2022-08-03T07:08:07;26.50;99.90
26212;DHT22;13951;49.516;6.094;2022-08-03T07:11:06;26.80;99.90
26212;DHT22;13951;49.516;6.094;2022-08-03T07:13:41;27.30;99.90
26212;DHT22;13951;49.516;6.094;2022-08-03T07:16:16;27.70;99.90
26212;DHT22;13951;49.516;6.094;2022-08-03T07:24:01;28.80;99.90
26212;DHT22;13951;49.516;6.094;2022-08-03T07:26:36;28.80;99.90
26212;DHT22;13951;49.516;6.094;2022-08-03T07:29:11;28.80;99.90
26212;DHT22;13951;49.516;6.094;2022-08-03T07:31:48;28.80;99.80
26212;DHT22;13951;49.516;6.094;2022-08-03T07:34:23;28.80;99.50
26212;DHT22;13951;49.516;6.094;2022-08-03T07:36:58;28.80;99.10
26212;DHT22;13951;49.516;6.094;2022-08-03T07:39:34;28.70;98.70
26212;DHT22;13951;49.516;6.094;2022-08-03T07:42:09;28.80;98.50
26212;DHT22;13951;49.516;6.094;2022-08-03T07:44:45;28.80;98.50
26212;DHT22;13951;49.516;6.094;2022-08-03T07:47:28;28.80;98.80
26212;DHT22;13951;49.516;6.094;2022-08-03T07:50:08;28.90;97.70
26212;DHT22;13951;49.516;6.094;2022-08-03T07:52:43;28.80;96.40
26212;DHT22;13951;49.516;6.094;2022-08-03T07:55:24;28.90;96.10
26212;DHT22;13951;49.516;6.094;2022-08-03T07:58:09;29.10;96.40
26212;DHT22;13951;49.516;6.094;2022-08-03T08:00:45;29.20;95.40
26212;DHT22;13951;49.516;6.094;2022-08-03T08:03:20;29.20;95.70
26212;DHT22;13951;49.516;6.094;2022-08-03T08:05:55;29.20;94.50
26212;DHT22;13951;49.516;6.094;2022-08-03T08:08:30;29.10;94.00
26212;DHT22;13951;49.516;6.094;2022-08-03T08:11:06;29.20;95.00
26212;DHT22;13951;49.516;6.094;2022-08-03T08:13:41;29.40;95.60
26212;DHT22;13951;49.516;6.094;2022-08-03T08:16:16;29.60;94.50
26212;DHT22;13951;49.516;6.094;2022-08-03T08:18:51;29.80;93.70
26212;DHT22;13951;49.516;6.094;2022-08-03T08:21:26;29.80;92.00
26212;DHT22;13951;49.516;6.094;2022-08-03T08:24:21;29.80;91.70
26212;DHT22;13951;49.516;6.094;2022-08-03T08:26:55;29.90;91.60
26212;DHT22;13951;49.516;6.094;2022-08-03T08:29:28;29.90;90.70
26212;DHT22;13951;49.516;6.094;2022-08-03T08:32:01;29.80;90.50
26212;DHT22;13951;49.516;6.094;2022-08-03T08:34:34;29.70;90.50
26212;DHT22;13951;49.516;6.094;2022-08-03T08:37:07;29.70;90.40
26212;DHT22;13951;49.516;6.094;2022-08-03T08:39:40;29.70;90.40
26212;DHT22;13951;49.516;6.094;2022-08-03T08:42:14;29.60;90.70
26212;DHT22;13951;49.516;6.094;2022-08-03T08:44:51;29.70;91.40
26212;DHT22;13951;49.516;6.094;2022-08-03T08:47:25;29.90;89.00
26212;DHT22;13951;49.516;6.094;2022-08-03T08:50:21;30.00;88.90
26212;DHT22;13951;49.516;6.094;2022-08-03T08:53:02;30.00;86.30
26212;DHT22;13951;49.516;6.094;2022-08-03T08:55:37;30.20;88.40
26212;DHT22;13951;49.516;6.094;2022-08-03T08:58:36;30.40;87.10
26212;DHT22;13951;49.516;6.094;2022-08-03T09:01:10;30.60;84.30
26212;DHT22;13951;49.516;6.094;2022-08-03T09:03:43;30.80;85.30
26212;DHT22;13951;49.516;6.094;2022-08-03T09:06:16;30.90;82.00
26212;DHT22;13951;49.516;6.094;2022-08-03T09:08:50;31.00;80.20
26212;DHT22;13951;49.516;6.094;2022-08-03T09:11:23;31.10;81.90
26212;DHT22;13951;49.516;6.094;2022-08-03T09:14:19;31.30;82.20
26212;DHT22;13951;49.516;6.094;2022-08-03T09:17:12;31.60;79.90
26212;DHT22;13951;49.516;6.094;2022-08-03T09:20:06;31.80;77.90
26212;DHT22;13951;49.516;6.094;2022-08-03T09:23:08;31.90;77.70
26212;DHT22;13951;49.516;6.094;2022-08-03T09:26:02;31.90;75.10
26212;DHT22;13951;49.516;6.094;2022-08-03T09:28:35;32.00;72.80
26212;DHT22;13951;49.516;6.094;2022-08-03T09:34:16;31.90;75.70
26212;DHT22;13951;49.516;6.094;2022-08-03T09:36:52;32.00;77.00
26212;DHT22;13951;49.516;6.094;2022-08-03T09:39:27;32.00;76.20
26212;DHT22;13951;49.516;6.094;2022-08-03T09:42:18;32.10;76.10
26212;DHT22;13951;49.516;6.094;2022-08-03T09:44:55;32.10;74.70
26212;DHT22;13951;49.516;6.094;2022-08-03T09:47:33;32.30;73.50
26212;DHT22;13951;49.516;6.094;2022-08-03T09:50:17;32.50;71.80
26212;DHT22;13951;49.516;6.094;2022-08-03T09:52:52;32.60;75.60
26212;DHT22;13951;49.516;6.094;2022-08-03T09:55:25;32.50;75.70
26212;DHT22;13951;49.516;6.094;2022-08-03T09:58:22;32.40;73.00
26212;DHT22;13951;49.516;6.094;2022-08-03T10:01:04;32.30;71.20
26212;DHT22;13951;49.516;6.094;2022-08-03T10:03:57;32.20;73.00
26212;DHT22;13951;49.516;6.094;2022-08-03T10:06:36;32.30;73.70
26212;DHT22;13951;49.516;6.094;2022-08-03T10:09:13;32.50;72.70
26212;DHT22;13951;49.516;6.094;2022-08-03T10:11:47;32.60;70.80
26212;DHT22;13951;49.516;6.094;2022-08-03T10:14:22;32.50;70.10
26212;DHT22;13951;49.516;6.094;2022-08-03T10:16:58;32.50;72.50
26212;DHT22;13951;49.516;6.094;2022-08-03T10:19:33;32.60;72.20
26212;DHT22;13951;49.516;6.094;2022-08-03T10:25:03;32.70;68.80
26212;DHT22;13951;49.516;6.094;2022-08-03T10:27:40;33.00;70.70
26212;DHT22;13951;49.516;6.094;2022-08-03T10:30:14;33.20;69.90
26212;DHT22;13951;49.516;6.094;2022-08-03T10:33:08;33.30;66.90
26212;DHT22;13951;49.516;6.094;2022-08-03T10:36:05;33.40;68.20
26212;DHT22;13951;49.516;6.094;2022-08-03T10:38:50;33.60;67.20
26212;DHT22;13951;49.516;6.094;2022-08-03T10:41:32;33.70;66.50
26212;DHT22;13951;49.516;6.094;2022-08-03T10:44:10;33.60;65.20
26212;DHT22;13951;49.516;6.094;2022-08-03T10:46:46;33.80;67.20
26212;DHT22;13951;49.516;6.094;2022-08-03T10:49:20;33.90;64.60
26212;DHT22;13951;49.516;6.094;2022-08-03T10:52:07;33.90;63.80
26212;DHT22;13951;49.516;6.094;2022-08-03T10:55:01;33.70;65.50
26212;DHT22;13951;49.516;6.094;2022-08-03T10:57:53;33.60;66.10
26212;DHT22;13951;49.516;6.094;2022-08-03T11:00:48;33.70;64.10
26212;DHT22;13951;49.516;6.094;2022-08-03T11:03:21;33.80;65.20
26212;DHT22;13951;49.516;6.094;2022-08-03T11:06:16;33.80;64.00
26212;DHT22;13951;49.516;6.094;2022-08-03T11:11:46;34.30;67.30
26212;DHT22;13951;49.516;6.094;2022-08-03T11:17:07;34.70;67.50
26212;DHT22;13951;49.516;6.094;2022-08-03T11:19:48;34.80;65.00
26212;DHT22;13951;49.516;6.094;2022-08-03T11:22:47;35.10;63.90
26212;DHT22;13951;49.516;6.094;2022-08-03T11:25:21;35.10;62.70
26212;DHT22;13951;49.516;6.094;2022-08-03T11:28:27;34.90;62.70
26212;DHT22;13951;49.516;6.094;2022-08-03T11:34:15;35.00;61.60
26212;DHT22;13951;49.516;6.094;2022-08-03T11:37:21;35.00;62.10
26212;DHT22;13951;49.516;6.094;2022-08-03T11:39:57;35.10;59.70
26212;DHT22;13951;49.516;6.094;2022-08-03T11:45:08;35.20;60.60
26212;DHT22;13951;49.516;6.094;2022-08-03T11:47:42;35.30;59.60
26212;DHT22;13951;49.516;6.094;2022-08-03T11:50:24;35.30;58.10
26212;DHT22;13951;49.516;6.094;2022-08-03T11:52:57;35.00;59.10
26212;DHT22;13951;49.516;6.094;2022-08-03T11:55:31;35.10;58.00
26212;DHT22;13951;49.516;6.094;2022-08-03T11:58:04;35.10;61.90
26212;DHT22;13951;49.516;6.094;2022-08-03T12:01:05;35.40;59.70
26212;DHT22;13951;49.516;6.094;2022-08-03T12:03:39;35.60;59.60
26212;DHT22;13951;49.516;6.094;2022-08-03T12:06:14;35.80;59.00
26212;DHT22;13951;49.516;6.094;2022-08-03T12:08:47;36.00;60.60
26212;DHT22;13951;49.516;6.094;2022-08-03T12:11:21;36.00;58.90
26212;DHT22;13951;49.516;6.094;2022-08-03T12:13:55;36.00;59.70
26212;DHT22;13951;49.516;6.094;2022-08-03T12:16:48;36.00;59.10
26212;DHT22;13951;49.516;6.094;2022-08-03T12:19:21;36.20;60.00
26212;DHT22;13951;49.516;6.094;2022-08-03T12:21:54;36.30;58.40
26212;DHT22;13951;49.516;6.094;2022-08-03T12:24:42;36.30;58.90
26212;DHT22;13951;49.516;6.094;2022-08-03T12:27:25;36.20;59.20
26212;DHT22;13951;49.516;6.094;2022-08-03T12:30:00;36.00;61.00
26212;DHT22;13951;49.516;6.094;2022-08-03T12:32:33;35.70;61.50
26212;DHT22;13951;49.516;6.094;2022-08-03T12:35:07;35.40;59.60
26212;DHT22;13951;49.516;6.094;2022-08-03T12:37:47;35.20;60.20
26212;DHT22;13951;49.516;6.094;2022-08-03T12:40:24;34.90;58.60
26212;DHT22;13951;49.516;6.094;2022-08-03T12:43:00;34.70;59.50
26212;DHT22;13951;49.516;6.094;2022-08-03T12:45:33;34.40;59.20
26212;DHT22;13951;49.516;6.094;2022-08-03T12:48:09;34.10;58.90
26212;DHT22;13951;49.516;6.094;2022-08-03T12:50:45;34.00;59.10
26212;DHT22;13951;49.516;6.094;2022-08-03T12:53:28;33.80;59.60
26212;DHT22;13951;49.516;6.094;2022-08-03T12:56:05;33.60;60.30
26212;DHT22;13951;49.516;6.094;2022-08-03T12:58:38;33.50;59.80
26212;DHT22;13951;49.516;6.094;2022-08-03T13:01:11;33.20;59.90
26212;DHT22;13951;49.516;6.094;2022-08-03T13:03:48;33.00;60.80
26212;DHT22;13951;49.516;6.094;2022-08-03T13:06:25;32.80;61.10
26212;DHT22;13951;49.516;6.094;2022-08-03T13:09:06;32.70;61.60
26212;DHT22;13951;49.516;6.094;2022-08-03T13:11:39;32.60;62.90
26212;DHT22;13951;49.516;6.094;2022-08-03T13:14:32;32.60;62.70
26212;DHT22;13951;49.516;6.094;2022-08-03T13:17:06;32.60;62.50
26212;DHT22;13951;49.516;6.094;2022-08-03T13:19:39;32.50;61.20
26212;DHT22;13951;49.516;6.094;2022-08-03T13:22:21;32.40;61.80
26212;DHT22;13951;49.516;6.094;2022-08-03T13:24:55;32.40;62.50
26212;DHT22;13951;49.516;6.094;2022-08-03T13:27:30;32.40;59.30
26212;DHT22;13951;49.516;6.094;2022-08-03T13:30:23;32.30;59.30
26212;DHT22;13951;49.516;6.094;2022-08-03T13:33:01;32.20;60.70
26212;DHT22;13951;49.516;6.094;2022-08-03T13:35:34;32.20;60.90
26212;DHT22;13951;49.516;6.094;2022-08-03T13:38:08;32.10;60.00
26212;DHT22;13951;49.516;6.094;2022-08-03T13:40:41;31.90;60.10
26212;DHT22;13951;49.516;6.094;2022-08-03T13:43:19;31.80;60.70
26212;DHT22;13951;49.516;6.094;2022-08-03T13:45:52;31.80;60.50
26212;DHT22;13951;49.516;6.094;2022-08-03T13:48:29;31.70;60.40
26212;DHT22;13951;49.516;6.094;2022-08-03T13:51:09;31.70;61.10
26212;DHT22;13951;49.516;6.094;2022-08-03T13:53:54;31.70;60.90
26212;DHT22;13951;49.516;6.094;2022-08-03T13:56:28;31.70;61.00
26212;DHT22;13951;49.516;6.094;2022-08-03T13:59:01;31.70;61.50
26212;DHT22;13951;49.516;6.094;2022-08-03T14:01:34;31.70;60.90
26212;DHT22;13951;49.516;6.094;2022-08-03T14:04:27;31.70;61.00
26212;DHT22;13951;49.516;6.094;2022-08-03T14:07:00;31.80;60.40
26212;DHT22;13951;49.516;6.094;2022-08-03T14:09:33;31.80;60.30
26212;DHT22;13951;49.516;6.094;2022-08-03T14:12:06;31.80;59.90
26212;DHT22;13951;49.516;6.094;2022-08-03T14:14:40;31.80;59.60
26212;DHT22;13951;49.516;6.094;2022-08-03T14:17:13;31.80;61.00
26212;DHT22;13951;49.516;6.094;2022-08-03T14:19:48;31.80;59.40
26212;DHT22;13951;49.516;6.094;2022-08-03T14:22:25;31.80;58.90
26212;DHT22;13951;49.516;6.094;2022-08-03T14:24:58;31.80;59.20
26212;DHT22;13951;49.516;6.094;2022-08-03T14:27:33;31.70;58.80
26212;DHT22;13951;49.516;6.094;2022-08-03T14:30:06;31.70;58.30
26212;DHT22;13951;49.516;6.094;2022-08-03T14:32:40;31.70;58.70
26212;DHT22;13951;49.516;6.094;2022-08-03T14:35:14;31.70;58.10
26212;DHT22;13951;49.516;6.094;2022-08-03T14:37:47;31.60;58.10
26212;DHT22;13951;49.516;6.094;2022-08-03T14:40:21;31.60;58.50
26212;DHT22;13951;49.516;6.094;2022-08-03T14:42:55;31.50;58.90
26212;DHT22;13951;49.516;6.094;2022-08-03T14:45:28;31.50;58.90
26212;DHT22;13951;49.516;6.094;2022-08-03T14:48:02;31.80;59.80
26212;DHT22;13951;49.516;6.094;2022-08-03T14:50:59;31.90;59.10
26212;DHT22;13951;49.516;6.094;2022-08-03T14:53:35;31.90;57.70
26212;DHT22;13951;49.516;6.094;2022-08-03T14:56:18;31.90;58.50
26212;DHT22;13951;49.516;6.094;2022-08-03T14:58:52;31.90;59.80
26212;DHT22;13951;49.516;6.094;2022-08-03T15:01:25;31.90;58.20
26212;DHT22;13951;49.516;6.094;2022-08-03T15:04:22;31.90;59.20
26212;DHT22;13951;49.516;6.094;2022-08-03T15:06:57;31.90;55.10
26212;DHT22;13951;49.516;6.094;2022-08-03T15:09:30;31.80;56.40
26212;DHT22;13951;49.516;6.094;2022-08-03T15:12:11;31.70;55.70
26212;DHT22;13951;49.516;6.094;2022-08-03T15:14:50;31.70;55.60
26212;DHT22;13951;49.516;6.094;2022-08-03T15:17:26;31.60;54.70
26212;DHT22;13951;49.516;6.094;2022-08-03T15:20:00;31.60;53.80
26212;DHT22;13951;49.516;6.094;2022-08-03T15:22:53;31.50;56.00
26212;DHT22;13951;49.516;6.094;2022-08-03T15:25:26;31.50;56.00
26212;DHT22;13951;49.516;6.094;2022-08-03T15:28:19;31.50;58.30
26212;DHT22;13951;49.516;6.094;2022-08-03T15:30:52;31.40;57.00
26212;DHT22;13951;49.516;6.094;2022-08-03T15:33:26;31.40;61.00
26212;DHT22;13951;49.516;6.094;2022-08-03T15:35:59;31.40;56.60
26212;DHT22;13951;49.516;6.094;2022-08-03T15:38:32;31.40;57.10
26212;DHT22;13951;49.516;6.094;2022-08-03T15:41:05;31.30;57.10
26212;DHT22;13951;49.516;6.094;2022-08-03T15:43:45;31.30;57.30
26212;DHT22;13951;49.516;6.094;2022-08-03T15:46:19;31.30;56.80
26212;DHT22;13951;49.516;6.094;2022-08-03T15:49:01;31.20;56.50
26212;DHT22;13951;49.516;6.094;2022-08-03T15:51:34;31.20;56.50
26212;DHT22;13951;49.516;6.094;2022-08-03T15:54:08;31.20;56.00
26212;DHT22;13951;49.516;6.094;2022-08-03T15:56:41;31.20;54.80
26212;DHT22;13951;49.516;6.094;2022-08-03T15:59:17;31.20;54.40
26212;DHT22;13951;49.516;6.094;2022-08-03T16:01:51;31.20;54.60
26212;DHT22;13951;49.516;6.094;2022-08-03T16:04:28;31.20;54.20
26212;DHT22;13951;49.516;6.094;2022-08-03T16:07:01;31.20;53.60
26212;DHT22;13951;49.516;6.094;2022-08-03T16:09:34;31.20;53.30
26212;DHT22;13951;49.516;6.094;2022-08-03T16:12:15;31.20;52.80
26212;DHT22;13951;49.516;6.094;2022-08-03T16:14:48;31.20;54.20
26212;DHT22;13951;49.516;6.094;2022-08-03T16:17:25;31.10;55.20
26212;DHT22;13951;49.516;6.094;2022-08-03T16:19:58;31.10;53.20
26212;DHT22;13951;49.516;6.094;2022-08-03T16:22:32;31.10;53.00
26212;DHT22;13951;49.516;6.094;2022-08-03T16:25:06;31.00;54.00
26212;DHT22;13951;49.516;6.094;2022-08-03T16:27:48;31.00;52.20
26212;DHT22;13951;49.516;6.094;2022-08-03T16:30:40;30.90;52.00
26212;DHT22;13951;49.516;6.094;2022-08-03T16:33:14;30.90;53.20
26212;DHT22;13951;49.516;6.094;2022-08-03T16:35:49;30.90;54.80
26212;DHT22;13951;49.516;6.094;2022-08-03T16:38:22;30.90;54.40
26212;DHT22;13951;49.516;6.094;2022-08-03T16:40:55;30.90;62.40
26212;DHT22;13951;49.516;6.094;2022-08-03T16:43:28;30.80;57.50
26212;DHT22;13951;49.516;6.094;2022-08-03T16:46:01;30.70;57.10
26212;DHT22;13951;49.516;6.094;2022-08-03T16:48:34;30.60;54.80
26212;DHT22;13951;49.516;6.094;2022-08-03T16:51:08;30.60;54.60
26212;DHT22;13951;49.516;6.094;2022-08-03T16:53:41;30.60;55.00
26212;DHT22;13951;49.516;6.094;2022-08-03T16:56:33;30.60;56.00
26212;DHT22;13951;49.516;6.094;2022-08-03T16:59:08;30.60;54.20
26212;DHT22;13951;49.516;6.094;2022-08-03T17:01:41;30.60;54.50
26212;DHT22;13951;49.516;6.094;2022-08-03T17:04:18;30.60;58.00
26212;DHT22;13951;49.516;6.094;2022-08-03T17:06:51;30.60;57.00
26212;DHT22;13951;49.516;6.094;2022-08-03T17:09:28;30.50;55.10
26212;DHT22;13951;49.516;6.094;2022-08-03T17:12:23;30.50;58.40
26212;DHT22;13951;49.516;6.094;2022-08-03T17:16:00;30.50;62.20